createdAt,value
2023-03-06T00:04:02.248Z,60.64
2023-03-06T00:09:03.954Z,60.85
2023-03-06T00:14:05.657Z,60.60
2023-03-06T00:19:07.364Z,60.27
2023-03-06T00:24:09.028Z,60.18
2023-03-06T00:29:10.627Z,60.34
2023-03-06T00:34:12.261Z,60.72
2023-03-06T00:39:13.996Z,60.71
2023-03-06T00:44:15.680Z,60.53
2023-03-06T00:49:17.287Z,60.46
2023-03-06T00:54:18.962Z,60.44
2023-03-06T00:59:20.673Z,60.44
2023-03-06T01:04:22.564Z,60.44
2023-03-06T01:09:24.726Z,60.49
2023-03-06T01:14:26.455Z,60.46
2023-03-06T01:19:28.224Z,60.69
2023-03-06T01:24:29.888Z,60.78
2023-03-06T01:29:31.529Z,61.04
2023-03-06T01:34:33.154Z,61.43
2023-03-06T01:39:34.775Z,62.02
2023-03-06T01:44:36.397Z,62.46
2023-03-06T01:49:41.406Z,62.99
2023-03-06T01:54:43.011Z,63.35
2023-03-06T01:59:47.917Z,63.77
2023-03-06T02:04:49.628Z,64.06
2023-03-06T02:09:51.276Z,64.16
2023-03-06T02:14:53.585Z,64.08
2023-03-06T02:20:20.830Z,64.49
2023-03-06T02:25:35.863Z,65.54
2023-03-06T02:30:37.613Z,64.70
2023-03-06T02:35:40.790Z,65.20
2023-03-06T02:40:44.805Z,65.00
2023-03-06T02:45:48.726Z,65.26
2023-03-06T02:50:50.488Z,65.08
2023-03-06T02:55:52.376Z,64.93
2023-03-06T03:00:54.019Z,65.05
2023-03-06T03:05:55.687Z,65.06
2023-03-06T03:10:57.690Z,64.77
2023-03-06T03:16:07.012Z,64.74
2023-03-06T03:21:10.275Z,64.85
2023-03-06T03:26:20.722Z,65.23
2023-03-06T03:31:22.481Z,64.76
2023-03-06T03:36:24.718Z,64.50
2023-03-06T03:41:26.377Z,64.22
2023-03-06T03:46:28.276Z,64.08
2023-03-06T03:51:30.078Z,64.43
2023-03-06T03:56:32.317Z,64.86
2023-03-06T04:01:34.230Z,65.26
2023-03-06T04:06:35.921Z,64.96
2023-03-06T04:11:37.622Z,65.17
2023-03-06T04:16:39.263Z,65.09
2023-03-06T04:21:40.993Z,65.07
2023-03-06T04:26:42.651Z,65.05
2023-03-06T04:31:44.419Z,65.42
2023-03-06T04:36:46.224Z,65.62
2023-03-06T04:41:47.878Z,65.93
2023-03-06T04:46:49.827Z,65.91
2023-03-06T04:51:51.529Z,66.01
2023-03-06T04:56:53.163Z,66.07
2023-03-06T05:01:54.995Z,66.27
2023-03-06T05:06:56.634Z,66.34
2023-03-06T05:11:58.331Z,66.41
2023-03-06T05:17:00.091Z,66.57
2023-03-06T05:22:01.830Z,66.56
2023-03-06T05:27:04.394Z,66.30
2023-03-06T05:32:06.284Z,66.45
2023-03-06T05:37:08.366Z,66.19
2023-03-06T05:42:10.153Z,65.98
2023-03-06T05:47:12.205Z,65.77
2023-03-06T05:52:14.918Z,65.70
2023-03-06T05:57:16.672Z,65.67
2023-03-06T06:02:19.057Z,65.77
2023-03-06T06:07:20.782Z,65.61
2023-03-06T06:12:22.460Z,65.49
2023-03-06T06:17:24.092Z,65.38
2023-03-06T06:22:25.715Z,65.45
2023-03-06T06:27:27.415Z,65.02
2023-03-06T06:32:29.137Z,65.22
2023-03-06T06:37:31.454Z,65.26
2023-03-06T06:42:38.948Z,65.37
2023-03-06T06:47:41.783Z,65.23
2023-03-06T06:52:43.726Z,65.22
2023-03-06T06:57:45.346Z,65.62
2023-03-06T07:02:49.329Z,65.71
2023-03-06T07:07:51.533Z,66.10
2023-03-06T07:12:53.416Z,66.12
2023-03-06T07:17:55.151Z,66.37
2023-03-06T07:22:56.849Z,66.44
2023-03-06T07:27:59.025Z,66.19
2023-03-06T07:33:00.741Z,66.08
2023-03-06T07:38:02.524Z,65.97
2023-03-06T07:43:18.286Z,66.15
2023-03-06T07:48:20.619Z,65.82
2023-03-06T07:53:22.747Z,65.75
2023-03-06T07:58:24.543Z,65.54
2023-03-06T08:03:26.293Z,65.31
2023-03-06T08:08:27.955Z,65.41
2023-03-06T08:13:29.578Z,64.93
2023-03-06T08:18:31.241Z,65.26
2023-03-06T08:23:34.053Z,65.01
2023-03-06T08:28:35.793Z,64.42
2023-03-06T08:33:37.644Z,64.06
2023-03-06T08:38:39.282Z,63.94
2023-03-06T08:43:40.962Z,63.70
2023-03-06T08:48:42.616Z,63.60
2023-03-06T08:53:44.890Z,62.90
2023-03-06T08:58:49.634Z,62.15
2023-03-06T09:03:53.245Z,61.12
2023-03-06T09:08:55.093Z,59.61
2023-03-06T09:13:57.330Z,59.30
2023-03-06T09:18:59.030Z,58.09
2023-03-06T09:24:00.703Z,58.05
2023-03-06T09:29:02.675Z,57.82
2023-03-06T09:34:04.359Z,58.56
2023-03-06T09:39:05.977Z,57.00
2023-03-06T09:44:15.186Z,56.30
2023-03-06T09:49:19.782Z,56.23
2023-03-06T09:54:31.452Z,56.37
2023-03-06T09:59:33.460Z,55.58
2023-03-06T10:04:40.695Z,55.66
2023-03-06T10:09:48.528Z,54.97
2023-03-06T10:15:16.294Z,53.66
2023-03-06T10:20:22.718Z,54.45
2023-03-06T10:25:30.884Z,53.84
2023-03-06T10:30:46.570Z,51.41
2023-03-06T10:35:49.647Z,52.39
2023-03-06T10:41:13.432Z,49.63
2023-03-06T10:46:31.166Z,49.55
2023-03-06T10:51:34.628Z,51.11
2023-03-06T10:56:39.582Z,51.25
2023-03-06T11:01:44.628Z,50.62
2023-03-06T11:06:46.299Z,50.54
2023-03-06T11:11:48.474Z,50.56
2023-03-06T11:16:53.822Z,49.70
2023-03-06T11:22:01.452Z,49.40
2023-03-06T11:27:22.391Z,48.48
2023-03-06T11:32:45.523Z,48.16
2023-03-06T11:37:54.120Z,49.45
2023-03-06T11:43:20.281Z,46.32
2023-03-06T11:48:28.868Z,46.94
2023-03-06T11:53:39.487Z,46.76
2023-03-06T11:59:07.752Z,45.03
2023-03-06T12:04:37.468Z,46.25
2023-03-06T12:09:44.384Z,47.11
2023-03-06T12:14:57.971Z,47.65
2023-03-06T12:20:29.112Z,47.47
2023-03-06T12:25:42.183Z,47.93
2023-03-06T12:31:19.692Z,47.05
2023-03-06T12:36:33.382Z,47.13
2023-03-06T12:41:50.105Z,46.74
2023-03-06T12:46:59.186Z,45.81
2023-03-06T12:52:02.562Z,45.97
2023-03-06T12:57:08.550Z,44.81
2023-03-06T13:02:28.880Z,43.30
2023-03-06T13:07:33.345Z,42.34
2023-03-06T13:12:40.646Z,41.68
2023-03-06T13:17:42.324Z,42.43
2023-03-06T13:22:46.287Z,41.44
2023-03-06T13:28:03.290Z,38.69
2023-03-06T13:33:26.938Z,39.91
2023-03-06T13:38:41.393Z,38.56
2023-03-06T13:43:45.349Z,40.00
2023-03-06T13:49:08.848Z,39.04
2023-03-06T13:54:28.370Z,40.63
2023-03-06T14:00:10.061Z,41.49
2023-03-06T14:05:17.044Z,42.03
2023-03-06T14:10:26.104Z,42.37
2023-03-06T14:15:39.957Z,43.58
2023-03-06T14:20:44.321Z,43.96
2023-03-06T14:25:46.729Z,45.34
2023-03-06T14:30:52.891Z,45.98
2023-03-06T14:35:58.618Z,46.05
2023-03-06T14:41:01.012Z,46.10
2023-03-06T14:46:06.500Z,46.35
2023-03-06T14:51:14.580Z,46.65
2023-03-06T14:56:22.113Z,47.04
2023-03-06T15:01:33.075Z,47.10
2023-03-06T15:06:43.622Z,46.84
2023-03-06T15:11:55.217Z,47.13
2023-03-06T15:16:56.908Z,46.98
2023-03-06T15:21:58.770Z,46.94
2023-03-06T15:27:16.453Z,46.96
2023-03-06T15:32:31.498Z,47.03
2023-03-06T15:37:34.308Z,46.74
2023-03-06T15:42:36.737Z,47.00
2023-03-06T15:47:38.999Z,46.93
2023-03-06T15:52:40.685Z,47.17
2023-03-06T15:57:51.334Z,46.79
2023-03-06T16:02:53.435Z,47.30
2023-03-06T16:07:55.702Z,47.38
2023-03-06T16:13:03.122Z,47.31
2023-03-06T16:18:06.257Z,47.97
2023-03-06T16:23:10.577Z,47.91
2023-03-06T16:28:14.724Z,48.54
2023-03-06T16:33:16.435Z,48.74
2023-03-06T16:38:18.074Z,49.34
2023-03-06T16:43:19.724Z,49.55
2023-03-06T16:48:21.374Z,50.28
2023-03-06T16:53:23.000Z,50.70
2023-03-06T16:58:24.735Z,51.48
2023-03-06T17:03:26.430Z,51.44
2023-03-06T17:08:28.146Z,51.84
2023-03-06T17:13:29.872Z,51.90
2023-03-06T17:18:31.876Z,52.29
2023-03-06T17:23:33.523Z,52.14
2023-03-06T17:28:36.877Z,52.62
2023-03-06T17:33:38.543Z,52.55
2023-03-06T17:38:40.656Z,52.66
2023-03-06T17:43:42.351Z,52.82
2023-03-06T17:48:44.684Z,52.29
2023-03-06T17:53:46.327Z,52.54
2023-03-06T17:58:47.943Z,52.36
2023-03-06T18:03:51.565Z,52.42
2023-03-06T18:08:54.040Z,52.60
2023-03-06T18:13:55.721Z,52.59
2023-03-06T18:18:57.723Z,52.68
2023-03-06T18:23:59.472Z,52.79
2023-03-06T18:29:04.461Z,52.80
2023-03-06T18:34:13.428Z,52.66
2023-03-06T18:39:15.825Z,52.33
2023-03-06T18:44:17.723Z,52.39
2023-03-06T18:49:19.439Z,52.06
2023-03-06T18:54:21.067Z,51.97
2023-03-06T18:59:22.738Z,51.81
2023-03-06T19:04:26.232Z,51.62
2023-03-06T19:09:27.972Z,51.66
2023-03-06T19:14:29.935Z,51.76
2023-03-06T19:19:32.406Z,51.82
2023-03-06T19:24:34.870Z,52.10
2023-03-06T19:29:39.409Z,51.94
2023-03-06T19:34:41.067Z,52.00
2023-03-06T19:39:43.236Z,52.09
2023-03-06T19:44:44.996Z,52.28
2023-03-06T19:49:46.608Z,52.52
2023-03-06T19:54:48.464Z,52.42
2023-03-06T19:59:51.482Z,52.41
2023-03-06T20:04:55.968Z,52.72
2023-03-06T20:10:00.759Z,52.64
2023-03-06T20:15:02.491Z,53.02
2023-03-06T20:20:04.391Z,52.75
2023-03-06T20:25:06.292Z,52.81
2023-03-06T20:30:08.758Z,53.43
2023-03-06T20:35:10.431Z,53.39
2023-03-06T20:40:12.483Z,53.30
2023-03-06T20:45:15.553Z,53.51
2023-03-06T20:50:17.249Z,53.67
2023-03-06T20:55:18.989Z,53.64
2023-03-06T21:00:21.124Z,53.64
2023-03-06T21:05:23.059Z,54.24
2023-03-06T21:10:24.823Z,54.35
2023-03-06T21:15:29.968Z,54.40
2023-03-06T21:20:31.840Z,54.70
2023-03-06T21:25:33.655Z,55.13
2023-03-06T21:30:35.298Z,54.92
2023-03-06T21:35:38.290Z,55.00
2023-03-06T21:40:40.002Z,55.00
2023-03-06T21:45:46.144Z,55.38
2023-03-06T21:50:47.957Z,55.21
2023-03-06T21:55:49.594Z,55.42
2023-03-06T22:00:51.328Z,55.20
2023-03-06T22:05:53.283Z,55.35
2023-03-06T22:10:54.928Z,55.08
2023-03-06T22:15:56.872Z,55.24
2023-03-06T22:20:58.654Z,55.24
2023-03-06T22:26:05.322Z,55.23
2023-03-06T22:31:12.095Z,55.36
2023-03-06T22:36:15.561Z,55.20
2023-03-06T22:41:18.131Z,55.87
2023-03-06T22:46:19.845Z,56.29
2023-03-06T22:51:21.728Z,57.09
2023-03-06T22:56:23.944Z,57.89
2023-03-06T23:01:30.985Z,58.74
2023-03-06T23:06:35.588Z,58.86
2023-03-06T23:11:37.197Z,59.08
2023-03-06T23:16:39.206Z,59.32
2023-03-06T23:21:41.930Z,59.64
2023-03-06T23:26:43.728Z,59.59
2023-03-06T23:31:45.336Z,59.85
2023-03-06T23:36:46.996Z,60.29
2023-03-06T23:41:48.582Z,60.39
2023-03-06T23:46:50.280Z,59.93
2023-03-06T23:51:51.959Z,60.27
2023-03-06T23:56:53.629Z,60.43
